Terminal Aerodrome Forecast
Issued by NWS

Home | Current Version | Previous Version | Text Only | Print | Product List | Glossary On
Versions: 1 2 3 4 5 6 7 8 9 10 11 12 13
869
FTUS43 KOAX 051739
TAFCDR
TAF
KCDR 051739Z 0518/0618 VRB05KT P6SM FEW250
     FM051900 18011G18KT P6SM FEW250
     FM052200 19009KT P6SM BKN250
     FM060400 20013G23KT P6SM BKN250
     FM060800 20009KT P6SM BKN250=

USA.gov is the U.S. government's official web portal to all federal, state and local government web resources and services.